Time;durP1;ratioP1;P1;durP2;ratioP2;P2;SDS_P1;SDS_P2;PMS_P1;PMS_P2;Temp;Humidity;BMP_temperature;BMP_pressure;BME280_temperature;BME280_humidity;BME280_pressure;Samples;Min_cycle;Max_cycle;Signal;HPM_P1;HPM_P2
2022/06/29 00:00:07;;;;;;;6.90;6.30;;;18.00;99.90;;;18.83;88.74;97803.22;5219646;28;20654;-61
2022/06/29 00:02:40;;;;;;;6.95;6.45;;;18.00;99.90;;;18.84;88.58;97804.97;5218884;28;20249;-59
2022/06/29 00:05:16;;;;;;;7.55;6.85;;;18.00;99.90;;;18.82;89.93;97812.69;5217369;28;20239;-61
2022/06/29 00:07:52;;;;;;;6.82;6.32;;;18.00;99.90;;;18.77;90.19;97803.06;5219445;28;20621;-61
2022/06/29 00:10:25;;;;;;;7.30;6.80;;;18.00;99.90;;;18.74;90.01;97797.81;5216719;28;21733;-60
2022/06/29 00:12:58;;;;;;;7.18;6.68;;;17.90;99.90;;;18.72;89.64;97794.28;5218870;28;20697;-59
2022/06/29 00:15:32;;;;;;;7.47;6.85;;;17.90;99.90;;;18.70;90.34;97789.06;5218580;28;20216;-61
2022/06/29 00:18:06;;;;;;;7.22;6.72;;;17.90;99.90;;;18.69;89.83;97784.72;5213083;28;20594;-60
2022/06/29 00:20:39;;;;;;;6.68;6.18;;;17.80;99.90;;;18.67;89.94;97781.22;5217056;28;20201;-61
2022/06/29 00:23:13;;;;;;;6.80;6.38;;;17.80;99.90;;;18.63;89.59;97784.59;5215969;28;20623;-61
2022/06/29 00:25:46;;;;;;;7.30;6.80;;;17.80;99.90;;;18.62;90.82;97785.41;5217791;28;20200;-61
2022/06/29 00:28:19;;;;;;;7.15;6.53;;;17.80;99.90;;;18.60;90.14;97781.91;5219547;28;20619;-61
2022/06/29 00:30:53;;;;;;;7.22;6.75;;;17.70;99.90;;;18.56;89.68;97782.69;5215420;28;20228;-61
2022/06/29 00:33:26;;;;;;;6.65;6.15;;;17.70;99.90;;;18.55;90.41;97788.72;5216879;28;20625;-59
2022/06/29 00:35:59;;;;;;;7.38;6.68;;;17.70;99.90;;;18.50;90.11;97792.88;5217949;28;20239;-60
2022/06/29 00:38:34;;;;;;;7.70;7.00;;;17.60;99.90;;;18.39;89.60;97792.59;5215196;28;20201;-59
2022/06/29 00:41:07;;;;;;;7.20;6.70;;;17.50;99.90;;;18.38;90.23;97783.97;5215881;28;20200;-61
2022/06/29 00:43:41;;;;;;;7.20;6.70;;;17.50;99.90;;;18.37;90.17;97776.16;5217388;28;20232;-58
2022/06/29 00:46:14;;;;;;;7.13;6.60;;;17.50;99.90;;;18.38;90.36;97778.81;5220842;28;20650;-61
2022/06/29 00:48:47;;;;;;;7.03;6.43;;;17.50;99.90;;;18.28;89.34;97776.81;5222074;28;20209;-59
2022/06/29 00:51:21;;;;;;;7.28;6.68;;;17.50;99.90;;;18.27;90.15;97771.59;5215698;28;20198;-58
2022/06/29 00:53:58;;;;;;;6.95;6.25;;;17.40;99.90;;;18.28;89.78;97774.22;5215481;28;20704;-57
2022/06/29 00:56:33;;;;;;;6.95;6.35;;;17.40;99.90;;;18.25;90.99;97781.91;5216153;28;20680;-57
2022/06/29 00:59:06;;;;;;;7.28;6.57;;;17.40;99.90;;;18.15;90.53;97783.38;5213214;28;20228;-58
2022/06/29 01:01:41;;;;;;;6.85;6.35;;;17.30;99.90;;;18.18;90.94;97782.59;5217680;28;20193;-60
2022/06/29 01:04:14;;;;;;;7.20;6.78;;;17.40;99.90;;;18.14;91.53;97789.41;5218339;28;20219;-58
2022/06/29 01:06:48;;;;;;;7.82;7.18;;;17.40;99.90;;;18.10;91.42;97784.09;5219096;28;20197;-54
2022/06/29 01:09:22;;;;;;;7.15;6.65;;;17.30;99.90;;;18.07;91.12;97784.03;5220934;28;20381;-59
2022/06/29 01:11:55;;;;;;;7.35;6.85;;;17.30;99.90;;;18.10;91.42;97777.22;5215215;28;20197;-58
2022/06/29 01:14:29;;;;;;;7.47;6.78;;;17.30;99.90;;;18.03;91.30;97777.91;5219187;28;20271;-58
2022/06/29 01:17:08;;;;;;;8.00;7.20;;;17.20;99.90;;;18.01;92.00;97761.47;5218341;28;20561;-55
2022/06/29 01:19:43;;;;;;;6.88;6.28;;;17.30;99.90;;;17.98;91.25;97767.44;5218867;28;20205;-58
2022/06/29 01:22:20;;;;;;;7.60;7.00;;;17.20;99.90;;;18.02;91.04;97771.84;5220530;28;20239;-57
2022/06/29 01:24:53;;;;;;;7.45;6.85;;;17.20;99.90;;;17.94;90.44;97765.59;5217716;28;20873;-57
2022/06/29 01:27:26;;;;;;;6.95;6.45;;;17.20;99.90;;;17.94;91.06;97764.72;5217883;28;20694;-56
2022/06/29 01:30:00;;;;;;;7.22;6.53;;;17.10;99.90;;;17.93;90.54;97768.13;5218458;28;20229;-58
2022/06/29 01:32:33;;;;;;;7.53;7.03;;;17.00;99.90;;;17.76;91.32;97760.75;5222445;28;20197;-59
2022/06/29 01:35:10;;;;;;;7.65;7.05;;;16.90;99.90;;;17.70;91.25;97759.72;5222523;28;20197;-59
2022/06/29 01:37:44;;;;;;;7.63;7.10;;;16.90;99.90;;;17.64;90.92;97750.09;5223345;28;20549;-59
2022/06/29 01:40:18;;;;;;;7.57;7.07;;;16.80;99.90;;;17.59;91.32;97750.81;5222577;28;20228;-59
2022/06/29 01:42:51;;;;;;;7.65;7.15;;;16.70;99.90;;;17.62;91.93;97756.06;5220663;28;20702;-60
2022/06/29 01:45:24;;;;;;;7.97;7.47;;;16.80;99.90;;;17.54;92.28;97748.97;5215495;28;20229;-60
2022/06/29 01:47:57;;;;;;;8.20;7.70;;;16.70;99.90;;;17.49;92.27;97755.72;5220618;28;20246;-61
2022/06/29 01:50:30;;;;;;;7.38;6.88;;;16.70;99.90;;;17.45;92.18;97747.81;5222392;28;20255;-60
2022/06/29 01:53:05;;;;;;;8.20;7.60;;;16.70;99.90;;;17.31;93.00;97747.44;5223972;28;20236;-60
2022/06/29 01:55:38;;;;;;;7.85;7.32;;;16.50;99.90;;;17.30;92.66;97753.44;5224405;28;20234;-61
2022/06/29 01:58:11;;;;;;;8.40;7.70;;;16.50;99.90;;;17.25;93.27;97757.59;5218044;28;20209;-60
2022/06/29 02:00:45;;;;;;;7.72;7.13;;;16.40;99.90;;;17.16;93.44;97755.63;5221746;28;20193;-61
2022/06/29 02:03:18;;;;;;;7.97;7.38;;;16.40;99.90;;;17.12;93.83;97740.88;5225795;28;20732;-61
2022/06/29 02:05:51;;;;;;;7.97;7.38;;;16.40;99.90;;;17.14;93.90;97731.47;5223571;28;20248;-61
2022/06/29 02:08:25;;;;;;;8.50;7.90;;;16.40;99.90;;;17.20;94.46;97731.66;5223682;28;20243;-61
2022/06/29 02:11:00;;;;;;;8.88;8.18;;;16.40;99.90;;;17.24;94.34;97728.31;5218256;28;20643;-59
2022/06/29 02:13:33;;;;;;;8.38;7.68;;;16.50;99.90;;;17.35;95.16;97726.03;5219810;28;20267;-61
2022/06/29 02:16:06;;;;;;;8.75;8.15;;;16.60;99.90;;;17.40;94.43;97729.63;5220511;28;20228;-59
2022/06/29 02:18:39;;;;;;;8.38;7.78;;;16.70;99.90;;;17.45;94.18;97720.28;5224881;28;20194;-59
2022/06/29 02:21:13;;;;;;;8.05;7.45;;;16.70;99.90;;;17.48;93.71;97722.97;5223237;28;20271;-59
2022/06/29 02:23:48;;;;;;;8.20;7.50;;;16.70;99.90;;;17.42;92.73;97725.34;5223110;28;20249;-61
2022/06/29 02:26:21;;;;;;;7.38;6.97;;;16.50;99.90;;;17.36;92.72;97727.78;5224480;28;20201;-61
2022/06/29 02:28:55;;;;;;;7.60;7.10;;;16.50;99.90;;;17.28;93.69;97726.69;5213625;28;20206;-61
2022/06/29 02:37:06;;;;;;;7.90;7.30;;;16.40;99.90;;;17.10;93.22;97733.06;5206724;28;20813;-58
2022/06/29 02:39:42;;;;;;;7.55;6.97;;;16.30;99.90;;;17.10;93.03;97732.19;5222639;28;20198;-59
2022/06/29 02:42:16;;;;;;;8.07;7.47;;;16.30;99.90;;;17.16;92.61;97731.50;5221978;28;20220;-59
2022/06/29 02:44:49;;;;;;;7.80;7.30;;;16.40;99.90;;;17.14;93.29;97728.00;5221043;28;20294;-57
2022/06/29 02:47:22;;;;;;;8.73;7.90;;;16.40;99.90;;;17.24;94.74;97732.59;5221753;28;20299;-54
2022/06/29 02:49:55;;;;;;;8.18;7.68;;;16.50;99.90;;;17.21;94.17;97737.69;5222644;28;20259;-58
2022/06/29 02:52:28;;;;;;;7.78;7.18;;;16.50;99.90;;;17.15;93.88;97728.03;5220456;28;20239;-58
2022/06/29 02:55:03;;;;;;;9.15;8.45;;;16.40;99.90;;;17.20;94.48;97723.03;5222730;28;20824;-59
2022/06/29 02:57:36;;;;;;;7.32;6.78;;;16.40;99.90;;;17.19;94.57;97718.66;5224365;28;20224;-59
2022/06/29 03:00:11;;;;;;;8.00;7.43;;;16.40;99.90;;;17.17;93.72;97728.06;5218670;28;20247;-54
2022/06/29 03:02:45;;;;;;;8.93;8.20;;;16.40;99.90;;;17.15;94.16;97724.59;5222568;28;20270;-58
2022/06/29 03:05:18;;;;;;;7.60;7.10;;;16.40;99.90;;;17.11;94.44;97726.19;5218996;28;20197;-59
2022/06/29 03:07:52;;;;;;;7.78;7.28;;;16.40;99.90;;;17.10;94.53;97724.44;5223404;28;20204;-58
2022/06/29 03:10:26;;;;;;;8.45;7.80;;;16.40;99.90;;;17.14;93.47;97730.56;5217876;28;20228;-60
2022/06/29 03:12:59;;;;;;;8.02;7.32;;;16.40;99.90;;;17.09;92.91;97723.56;5220000;28;20342;-58
2022/06/29 03:15:33;;;;;;;7.57;7.07;;;16.30;99.90;;;17.09;92.88;97728.75;5220155;28;20335;-58
2022/06/29 03:18:06;;;;;;;7.25;6.80;;;16.30;99.90;;;17.01;92.11;97719.88;5211286;28;20206;-59
2022/06/29 03:20:39;;;;;;;7.93;7.25;;;16.20;99.90;;;16.93;92.14;97726.53;5217043;28;20204;-58
2022/06/29 03:23:13;;;;;;;7.57;7.07;;;16.20;99.90;;;16.90;93.95;97721.28;5214981;28;20283;-60
2022/06/29 03:25:47;;;;;;;8.23;7.43;;;16.10;99.90;;;16.94;93.44;97730.88;5212468;28;20630;-58
2022/06/29 03:28:20;;;;;;;8.07;7.47;;;16.20;99.90;;;16.91;93.24;97723.00;5217028;28;20224;-58
2022/06/29 03:30:53;;;;;;;8.13;7.40;;;16.10;99.90;;;16.94;93.28;97725.72;5213790;28;20618;-58
2022/06/29 03:33:26;;;;;;;8.15;7.50;;;16.20;99.90;;;16.90;93.50;97723.84;5214527;28;20213;-59
2022/06/29 03:36:00;;;;;;;7.93;7.20;;;16.20;99.90;;;16.91;93.19;97727.31;5218936;28;22040;-59
2022/06/29 03:38:33;;;;;;;7.75;7.15;;;16.10;99.90;;;16.88;93.41;97725.50;5218777;28;20621;-58
2022/06/29 03:41:07;;;;;;;7.97;7.35;;;16.20;99.90;;;16.91;94.26;97720.44;5215460;28;20247;-59
2022/06/29 03:43:40;;;;;;;8.07;7.38;;;16.20;99.90;;;16.81;92.67;97728.75;5216076;28;20286;-57
2022/06/29 03:46:14;;;;;;;6.95;6.45;;;16.00;99.90;;;16.82;92.90;97725.31;5214016;28;20201;-58
2022/06/29 03:48:47;;;;;;;7.68;7.18;;;16.10;99.90;;;16.88;92.91;97712.59;5215338;28;20308;-56
2022/06/29 03:51:20;;;;;;;9.35;8.63;;;16.10;99.90;;;16.89;94.28;97706.63;5215399;28;20675;-56
2022/06/29 03:53:54;;;;;;;8.63;7.97;;;16.20;99.90;;;16.90;93.88;97710.94;5211998;28;20220;-57
2022/06/29 03:56:29;;;;;;;8.68;7.90;;;16.20;99.90;;;16.94;93.97;97717.97;5214657;28;20617;-56
2022/06/29 03:59:02;;;;;;;8.18;7.60;;;16.20;99.90;;;16.97;94.42;97719.75;5209537;28;20609;-59
2022/06/29 04:01:35;;;;;;;7.75;7.25;;;16.30;99.90;;;16.96;93.75;97713.72;5215034;28;20263;-57
2022/06/29 04:04:08;;;;;;;8.80;8.10;;;16.20;99.90;;;17.02;92.93;97718.19;5215590;28;20221;-55
2022/06/29 04:06:42;;;;;;;8.43;7.82;;;16.30;99.90;;;17.01;93.73;97717.31;5213231;28;20622;-55
2022/06/29 04:09:15;;;;;;;7.30;6.80;;;16.30;99.90;;;17.06;93.15;97714.88;5214877;28;20249;-57
2022/06/29 04:11:49;;;;;;;7.80;7.18;;;16.30;99.90;;;17.07;92.33;97712.31;5213437;28;20235;-54
2022/06/29 04:14:25;;;;;;;8.43;7.65;;;16.30;99.90;;;17.13;92.93;97718.50;5214420;28;20311;-56
2022/06/29 04:16:59;;;;;;;7.63;7.03;;;16.30;99.90;;;17.14;92.99;97721.16;5217902;28;20232;-55
2022/06/29 04:19:32;;;;;;;8.23;7.63;;;16.40;99.90;;;17.19;92.34;97718.66;5221250;28;20205;-53
2022/06/29 04:22:05;;;;;;;7.50;6.85;;;16.40;99.90;;;17.16;90.87;97718.59;5222130;28;20209;-55
2022/06/29 04:24:38;;;;;;;7.85;7.25;;;16.30;99.90;;;17.12;91.50;97720.22;5218252;28;20648;-56
2022/06/29 04:27:13;;;;;;;8.50;7.80;;;16.30;99.90;;;17.19;92.38;97726.41;5219704;28;20197;-53
2022/06/29 04:29:46;;;;;;;7.15;6.70;;;16.40;99.90;;;17.22;91.04;97721.34;5218808;28;20225;-52
2022/06/29 04:32:19;;;;;;;8.50;7.80;;;16.40;99.90;;;17.24;91.31;97722.28;5212495;28;20201;-57
2022/06/29 04:34:52;;;;;;;7.47;6.82;;;16.40;99.90;;;17.29;91.35;97733.63;5217399;28;20595;-55
2022/06/29 04:37:25;;;;;;;7.45;6.95;;;16.50;99.90;;;17.38;90.88;97731.28;5217842;28;20224;-57
2022/06/29 04:40:00;;;;;;;7.85;7.15;;;16.60;99.90;;;17.31;90.48;97729.34;5213688;28;20623;-56
2022/06/29 04:42:35;;;;;;;8.13;7.43;;;16.60;99.90;;;17.41;90.26;97721.03;5215426;28;20625;-53
2022/06/29 04:46:19;;;;;;;8.45;7.80;;;16.60;99.90;;;17.55;90.11;97727.47;5212553;28;20735;-51
2022/06/29 04:48:04;;;;;;;8.13;7.50;;;16.80;99.90;;;17.66;90.71;97724.31;5215891;28;20210;-53
2022/06/29 04:50:37;;;;;;;8.60;7.70;;;16.90;99.90;;;17.68;88.46;97735.53;5220589;28;20256;-52
2022/06/29 04:53:10;;;;;;;7.97;7.05;;;16.80;99.90;;;17.63;88.57;97738.03;5216486;28;20278;-55
2022/06/29 04:55:43;;;;;;;7.93;7.43;;;16.80;99.90;;;17.66;89.11;97738.09;5220077;28;20240;-57
2022/06/29 04:58:17;;;;;;;8.07;7.55;;;16.90;99.90;;;17.94;88.42;97732.00;5222685;28;20198;-53
2022/06/29 05:00:51;;;;;;;7.50;7.00;;;17.30;99.90;;;18.59;87.54;97736.16;5221607;28;20220;-54
2022/06/29 05:03:24;;;;;;;7.45;6.95;;;17.90;99.90;;;19.24;83.89;97735.91;5220943;28;20217;-53
2022/06/29 05:05:57;;;;;;;7.43;7.03;;;18.50;99.90;;;19.96;80.95;97742.53;5221635;28;20201;-53
2022/06/29 05:08:30;;;;;;;7.35;6.85;;;19.10;99.90;;;20.54;78.17;97751.31;5225100;28;20204;-59
2022/06/29 05:11:04;;;;;;;7.45;6.85;;;19.70;99.90;;;20.97;75.17;97733.78;5220920;28;20230;-58
2022/06/29 05:13:38;;;;;;;7.15;6.65;;;19.90;99.90;;;21.22;73.85;97734.13;5221784;28;20253;-56
2022/06/29 05:16:11;;;;;;;7.55;6.90;;;20.10;99.90;;;21.36;72.77;97733.47;5224718;28;20727;-60
2022/06/29 05:18:45;;;;;;;7.30;6.80;;;20.20;99.90;;;21.22;72.66;97739.31;5225479;28;20201;-57
2022/06/29 05:21:19;;;;;;;7.28;6.53;;;20.10;99.90;;;21.13;73.02;97733.13;5223549;28;20304;-58
2022/06/29 05:23:52;;;;;;;8.00;7.40;;;20.00;99.90;;;21.14;73.05;97732.28;5221998;28;20668;-59
2022/06/29 05:26:25;;;;;;;6.82;6.32;;;20.00;99.90;;;21.22;73.54;97734.13;5222778;28;20670;-57
2022/06/29 05:29:00;;;;;;;7.47;6.93;;;20.00;99.90;;;21.22;73.87;97731.50;5225869;28;20209;-60
2022/06/29 05:31:33;;;;;;;7.78;7.18;;;19.90;99.90;;;21.12;74.32;97734.00;5224173;28;20343;-56
2022/06/29 05:34:06;;;;;;;7.55;6.95;;;19.90;99.90;;;21.05;75.10;97731.28;5223310;28;20279;-59
2022/06/29 05:36:39;;;;;;;7.50;7.10;;;19.80;99.90;;;21.01;76.03;97725.19;5225190;28;20604;-59
2022/06/29 05:39:12;;;;;;;7.45;6.85;;;19.80;99.90;;;21.20;76.73;97726.28;5219523;28;20201;-57
2022/06/29 05:41:46;;;;;;;8.00;7.40;;;20.10;99.90;;;21.35;76.16;97716.09;5224253;28;20581;-59
2022/06/29 05:44:20;;;;;;;7.72;7.03;;;20.20;99.90;;;21.44;75.46;97715.38;5225338;28;20224;-59
2022/06/29 05:46:54;;;;;;;8.70;8.00;;;20.20;99.90;;;21.37;75.34;97710.94;5220915;28;20201;-60
2022/06/29 05:49:27;;;;;;;8.30;7.70;;;20.30;99.90;;;21.32;76.37;97710.00;5227251;28;20190;-58
2022/06/29 05:52:00;;;;;;;7.68;7.07;;;20.20;99.90;;;21.33;76.12;97706.53;5220820;28;20683;-58
2022/06/29 05:54:33;;;;;;;8.20;7.60;;;20.10;99.90;;;21.27;76.15;97707.31;5222463;28;20266;-58
2022/06/29 05:57:06;;;;;;;8.35;7.65;;;20.10;99.90;;;21.27;76.82;97701.25;5221897;28;20229;-57
2022/06/29 05:59:41;;;;;;;7.65;7.15;;;20.10;99.90;;;21.24;76.86;97699.47;5222048;28;20235;-61
2022/06/29 06:02:14;;;;;;;8.02;7.32;;;20.10;99.90;;;21.25;76.78;97703.81;5224504;28;20604;-57
2022/06/29 06:04:47;;;;;;;7.68;7.07;;;20.00;99.90;;;21.13;77.79;97693.28;5217982;28;20225;-57
2022/06/29 06:07:21;;;;;;;8.20;7.63;;;19.80;99.90;;;21.06;77.41;97701.84;5219179;28;20709;-57
2022/06/29 06:09:54;;;;;;;7.70;7.20;;;19.70;99.90;;;21.01;77.83;97709.59;5214275;28;20213;-57
2022/06/29 06:12:28;;;;;;;8.68;7.90;;;19.70;99.90;;;20.91;78.35;97702.50;5216753;28;20760;-59
2022/06/29 06:15:03;;;;;;;8.45;7.78;;;19.70;99.90;;;20.84;78.46;97701.56;5222038;28;20633;-60
2022/06/29 06:17:36;;;;;;;8.30;7.80;;;19.60;99.90;;;20.80;78.55;97698.88;5221037;28;20201;-57
2022/06/29 06:20:11;;;;;;;8.20;7.60;;;19.50;99.90;;;20.79;79.04;97695.41;5217826;28;20605;-55
2022/06/29 06:22:44;;;;;;;8.73;7.95;;;19.60;99.90;;;20.75;79.58;97697.97;5221201;28;20256;-58
2022/06/29 06:25:18;;;;;;;9.05;8.23;;;19.60;99.90;;;20.76;79.95;97717.91;5223003;28;20262;-60
2022/06/29 06:27:51;;;;;;;9.02;8.32;;;19.60;99.90;;;20.79;80.38;97710.13;5222052;28;20201;-57
2022/06/29 06:30:26;;;;;;;9.02;8.32;;;19.70;99.90;;;20.83;80.01;97710.22;5219159;28;20228;-58
2022/06/29 06:32:59;;;;;;;8.80;8.20;;;19.70;99.90;;;20.87;80.13;97716.31;5224427;28;20669;-58
2022/06/29 06:35:33;;;;;;;10.20;8.68;;;19.70;99.90;;;20.89;80.01;97714.63;5224318;28;20623;-58
2022/06/29 06:38:06;;;;;;;9.40;8.70;;;19.80;99.90;;;20.94;79.45;97715.53;5219652;28;20670;-60
2022/06/29 06:43:30;;;;;;;9.68;8.88;;;19.80;99.90;;;20.77;80.27;97717.03;5221049;28;20286;-57
2022/06/29 06:46:05;;;;;;;9.98;9.25;;;19.70;99.90;;;20.80;80.06;97724.88;5214476;28;20243;-58
2022/06/29 06:48:38;;;;;;;9.02;8.25;;;19.70;99.90;;;20.96;79.76;97721.63;5222175;28;20247;-60
2022/06/29 06:51:12;;;;;;;9.52;8.82;;;19.90;99.90;;;20.92;80.46;97725.06;5220586;28;20202;-61
2022/06/29 06:53:45;;;;;;;9.40;8.70;;;19.90;99.90;;;21.02;79.30;97731.25;5219692;28;20216;-57
2022/06/29 06:56:19;;;;;;;9.02;8.43;;;20.00;99.90;;;21.13;78.57;97735.72;5222990;28;20225;-59
2022/06/29 06:58:52;;;;;;;8.88;8.27;;;20.10;99.90;;;21.25;77.64;97739.34;5224042;28;20209;-55
2022/06/29 07:01:28;;;;;;;9.10;8.45;;;20.10;99.90;;;21.30;77.70;97733.34;5222269;28;20272;-60
2022/06/29 07:04:01;;;;;;;9.27;8.60;;;20.20;99.90;;;21.44;77.60;97725.75;5222666;28;20227;-60
2022/06/29 07:06:35;;;;;;;9.50;8.90;;;20.40;99.90;;;21.52;77.02;97728.47;5222875;28;20201;-55
2022/06/29 07:09:08;;;;;;;9.20;8.55;;;20.50;99.90;;;21.60;76.58;97726.78;5223548;28;20650;-59
2022/06/29 07:11:41;;;;;;;9.10;8.20;;;20.50;99.90;;;21.68;76.42;97729.50;5219531;28;20233;-55
2022/06/29 07:14:14;;;;;;;8.93;8.32;;;20.60;99.90;;;21.80;76.41;97734.81;5220281;28;20221;-57
2022/06/29 07:16:49;;;;;;;9.27;8.63;;;20.80;99.90;;;21.92;76.39;97731.47;5221506;28;20630;-56
2022/06/29 07:19:22;;;;;;;9.43;8.60;;;20.90;99.90;;;21.97;75.38;97733.25;5218203;28;20201;-60
2022/06/29 07:21:55;;;;;;;8.98;8.38;;;20.90;99.90;;;22.03;75.57;97725.53;5218576;28;20263;-57
2022/06/29 07:24:28;;;;;;;8.63;8.02;;;20.90;99.90;;;22.12;75.31;97732.56;5222289;28;20237;-53
2022/06/29 07:27:01;;;;;;;9.20;8.50;;;21.00;99.90;;;22.18;74.41;97723.97;5219679;28;20201;-56
2022/06/29 07:29:35;;;;;;;8.32;7.72;;;21.00;99.90;;;22.20;74.76;97725.69;5219216;28;20197;-55
2022/06/29 07:32:09;;;;;;;8.60;8.00;;;21.10;99.90;;;22.30;74.43;97726.66;5221892;28;20261;-57
2022/06/29 07:34:42;;;;;;;7.97;7.47;;;21.20;99.90;;;22.36;74.35;97731.94;5219673;28;20302;-58
2022/06/29 07:37:16;;;;;;;8.13;7.53;;;21.30;99.90;;;22.41;73.81;97725.03;5219371;28;20263;-59
2022/06/29 07:39:49;;;;;;;8.45;7.65;;;21.30;99.90;;;22.46;72.82;97730.25;5220740;28;20240;-54
2022/06/29 07:42:42;;;;;;;7.63;7.22;;;21.30;99.90;;;22.56;73.19;97733.81;5221447;28;20216;-57
2022/06/29 07:45:15;;;;;;;8.35;7.75;;;21.30;99.90;;;22.62;72.84;97734.72;5221545;28;20275;-56
2022/06/29 07:47:56;;;;;;;8.65;7.97;;;21.40;99.90;;;22.68;72.29;97741.72;5219242;28;20569;-58
2022/06/29 07:50:29;;;;;;;7.78;7.28;;;21.50;99.90;;;22.82;71.81;97731.41;5219796;28;20239;-60
2022/06/29 07:53:02;;;;;;;8.10;7.55;;;21.60;99.90;;;22.89;71.53;97739.28;5215434;28;20264;-58
2022/06/29 07:55:36;;;;;;;8.25;7.65;;;21.70;99.90;;;22.87;71.12;97733.16;5219581;28;20623;-58
2022/06/29 07:58:09;;;;;;;8.38;7.70;;;21.70;99.90;;;22.98;71.10;97735.88;5223287;28;20650;-60
2022/06/29 08:00:44;;;;;;;8.23;7.63;;;21.70;99.90;;;23.05;71.75;97734.16;5222652;28;20634;-59
2022/06/29 08:03:19;;;;;;;8.68;8.05;;;21.90;99.90;;;23.03;70.90;97728.06;5221553;28;20248;-61
2022/06/29 08:05:53;;;;;;;7.32;6.93;;;21.90;99.90;;;22.98;71.18;97727.16;5217524;28;20291;-59
2022/06/29 08:08:27;;;;;;;7.68;7.07;;;21.90;99.90;;;23.18;70.53;97728.16;5218640;28;20225;-58
2022/06/29 08:11:00;;;;;;;7.90;7.40;;;22.00;99.90;;;23.12;70.92;97728.09;5220670;28;20257;-60
2022/06/29 08:13:33;;;;;;;8.10;7.32;;;22.00;99.90;;;23.22;69.80;97724.69;5219593;28;20261;-57
2022/06/29 08:16:07;;;;;;;7.72;7.22;;;22.10;99.90;;;23.14;69.61;97723.78;5217454;28;20234;-60
2022/06/29 08:18:42;;;;;;;7.55;6.97;;;22.00;99.90;;;23.27;69.94;97717.78;5217620;28;20220;-60
2022/06/29 08:21:15;;;;;;;7.80;7.20;;;22.10;99.90;;;23.39;69.32;97715.19;5222085;28;20251;-60
2022/06/29 08:23:48;;;;;;;7.18;6.63;;;22.30;99.90;;;23.62;69.03;97717.03;5216645;28;20889;-57
2022/06/29 08:26:21;;;;;;;7.18;6.75;;;22.50;99.90;;;24.09;68.13;97713.66;5220042;28;20631;-60
2022/06/29 08:29:15;;;;;;;7.32;6.82;;;23.00;99.90;;;24.64;64.93;97708.47;5218307;28;20197;-60
2022/06/29 08:31:48;;;;;;;7.35;6.75;;;23.40;99.90;;;25.20;64.19;97705.75;5218828;28;20665;-58
2022/06/29 08:34:22;;;;;;;7.65;7.05;;;24.10;99.90;;;25.62;61.40;97707.31;5216055;28;20222;-58
2022/06/29 08:36:55;;;;;;;6.97;6.47;;;24.60;99.90;;;26.14;60.79;97699.16;5217362;28;20196;-61
2022/06/29 08:39:28;;;;;;;7.20;6.63;;;25.20;99.90;;;26.72;56.71;97697.81;5223616;28;20255;-61
2022/06/29 08:42:05;;;;;;;8.00;7.30;;;25.90;99.90;;;27.03;55.07;97689.63;5218611;28;20224;-58
2022/06/29 08:44:39;;;;;;;6.70;6.20;;;26.20;99.90;;;27.22;56.25;97696.44;5220958;28;20224;-61
2022/06/29 08:47:12;;;;;;;6.18;5.78;;;26.30;99.90;;;27.55;55.25;97695.13;5216744;28;20235;-61
2022/06/29 08:49:46;;;;;;;6.75;6.25;;;26.70;99.90;;;27.88;53.31;97692.97;5218996;28;20541;-61
2022/06/29 08:52:20;;;;;;;6.50;5.90;;;27.10;98.70;;;28.04;54.15;97697.09;5220724;28;20700;-61
2022/06/29 08:54:55;;;;;;;6.97;6.28;;;27.10;99.10;;;27.99;52.53;97698.94;5219809;28;20236;-61
2022/06/29 08:57:28;;;;;;;6.50;5.95;;;27.00;98.30;;;28.03;51.87;97694.50;5215573;28;20227;-60
2022/06/29 09:00:02;;;;;;;6.18;5.70;;;26.70;98.10;;;27.66;52.78;97705.50;5219139;28;20197;-61
2022/06/29 09:02:36;;;;;;;6.20;5.70;;;26.50;98.50;;;27.48;54.20;97703.13;5218365;28;20641;-60
2022/06/29 09:05:11;;;;;;;7.15;5.65;;;26.20;99.30;;;27.25;55.03;97690.28;5218123;28;20192;-60
2022/06/29 09:07:44;;;;;;;5.93;5.43;;;25.90;99.90;;;27.35;55.17;97687.50;5220336;28;20675;-61
2022/06/29 09:10:21;;;;;;;6.13;5.72;;;26.10;99.90;;;27.54;54.31;97688.13;5213829;28;20204;-61
2022/06/29 09:12:57;;;;;;;6.03;5.57;;;26.40;99.00;;;27.61;53.77;97684.56;5215464;28;20633;-60
2022/06/29 09:15:33;;;;;;;6.07;5.68;;;26.20;99.20;;;27.61;54.06;97681.03;5213814;28;20240;-60
2022/06/29 09:18:26;;;;;;;6.50;5.97;;;26.30;99.30;;;27.64;53.06;97683.63;5217697;28;20623;-61
2022/06/29 09:21:03;;;;;;;6.70;6.05;;;26.40;98.40;;;27.28;53.59;97679.75;5218781;28;20236;-61
2022/06/29 09:23:36;;;;;;;7.13;6.53;;;26.10;98.80;;;27.34;54.49;97675.28;5223221;28;20270;-60
2022/06/29 09:26:09;;;;;;;6.72;6.22;;;26.30;98.90;;;27.48;53.91;97676.88;5209477;28;20642;-61
2022/06/29 09:28:42;;;;;;;6.13;5.70;;;26.60;98.50;;;27.74;53.80;97679.13;5214158;28;20229;-61
2022/06/29 09:31:16;;;;;;;6.90;6.30;;;26.80;98.10;;;27.48;54.30;97671.59;5217546;28;20280;-61
2022/06/29 09:33:49;;;;;;;6.53;6.03;;;26.70;98.20;;;27.36;54.42;97683.16;5219043;28;20633;-61
2022/06/29 09:36:24;;;;;;;5.47;5.15;;;26.60;98.00;;;27.42;54.45;97677.81;5220868;28;20224;-61
2022/06/29 09:38:57;;;;;;;5.43;5.13;;;26.30;98.80;;;27.34;55.40;97680.53;5219654;28;20222;-60
2022/06/29 09:41:30;;;;;;;6.15;5.55;;;26.20;99.40;;;27.51;55.29;97676.81;5221455;28;20255;-60
2022/06/29 09:44:03;;;;;;;6.15;5.65;;;26.40;99.60;;;27.39;54.19;97681.34;5219984;28;20225;-61
2022/06/29 09:46:37;;;;;;;5.90;5.50;;;26.40;98.90;;;27.38;55.01;97679.59;5220284;28;20203;-59
2022/06/29 09:49:10;;;;;;;6.07;5.68;;;26.30;98.90;;;27.23;55.55;97682.41;5219240;28;20193;-61
2022/06/29 09:51:48;;;;;;;6.00;5.50;;;26.10;99.40;;;27.29;54.98;97677.09;5219584;28;20232;-61
2022/06/29 09:54:25;;;;;;;5.32;4.95;;;26.00;99.60;;;27.20;55.45;97677.19;5220118;28;20823;-61
2022/06/29 09:56:58;;;;;;;6.43;5.93;;;26.00;99.70;;;26.94;55.95;97678.34;5221430;28;20204;-61
2022/06/29 10:02:43;;;;;;;5.85;5.15;;;26.10;99.90;;;27.42;55.82;97687.44;5217622;28;20666;-61
2022/06/29 10:05:21;;;;;;;5.45;5.05;;;26.50;99.40;;;27.73;54.79;97683.50;5222793;28;20197;-61
2022/06/29 10:07:56;;;;;;;5.85;5.30;;;26.70;98.30;;;27.73;54.00;97683.50;5219811;28;20496;-60
2022/06/29 10:10:30;;;;;;;5.53;5.13;;;26.60;98.20;;;27.85;53.44;97682.50;5221475;28;20197;-59
2022/06/29 10:16:20;;;;;;;5.30;4.90;;;27.00;98.10;;;27.91;53.82;97676.28;5220377;28;20387;-59
2022/06/29 10:19:19;;;;;;;5.38;4.90;;;27.00;97.80;;;28.03;53.15;97681.34;5220271;28;20283;-61
2022/06/29 10:21:53;;;;;;;4.72;4.40;;;27.10;97.60;;;28.36;51.57;97674.69;5217883;28;20690;-61
2022/06/29 10:24:28;;;;;;;5.25;4.85;;;27.20;96.70;;;28.35;51.53;97677.31;5217908;28;20565;-61
2022/06/29 10:27:07;;;;;;;4.78;4.38;;;27.30;96.70;;;28.39;51.52;97674.63;5218379;28;20189;-61
2022/06/29 10:29:40;;;;;;;5.05;4.63;;;27.10;96.80;;;28.24;51.54;97675.75;5217336;28;20928;-61
2022/06/29 10:32:16;;;;;;;4.82;4.38;;;26.80;97.20;;;28.19;51.07;97679.34;5219040;28;20370;-61
2022/06/29 10:35:08;;;;;;;4.93;4.53;;;26.70;96.60;;;28.18;50.81;97675.84;5219467;28;20607;-61
2022/06/29 10:37:50;;;;;;;5.13;4.63;;;26.70;96.80;;;28.16;50.77;97682.91;5222891;28;20251;-61
2022/06/29 10:40:30;;;;;;;5.03;4.63;;;26.70;97.10;;;27.84;52.95;97680.75;5221618;28;20635;-61
2022/06/29 10:43:20;;;;;;;4.95;4.38;;;26.50;97.70;;;27.95;51.54;97672.72;5223517;28;20228;-61
2022/06/29 10:45:57;;;;;;;4.82;4.25;;;26.50;96.80;;;27.77;51.62;97674.69;5223668;28;20589;-61
2022/06/29 10:48:31;;;;;;;5.22;4.78;;;26.40;97.00;;;27.78;52.22;97668.53;5224553;28;20288;-61
2022/06/29 10:51:06;;;;;;;5.25;4.68;;;26.30;97.80;;;27.80;52.99;97660.69;5220891;28;20204;-60
2022/06/29 10:53:39;;;;;;;4.88;4.47;;;26.40;98.00;;;27.89;52.70;97667.56;5221582;28;20712;-61
2022/06/29 10:56:18;;;;;;;5.30;4.80;;;26.40;97.90;;;27.90;52.21;97662.28;5219143;28;20192;-61
2022/06/29 10:58:53;;;;;;;4.95;4.55;;;26.50;97.60;;;27.87;52.64;97657.03;5213510;28;20723;-60
2022/06/29 11:01:26;;;;;;;4.75;4.40;;;26.60;97.70;;;28.13;51.41;97656.66;5217420;28;20291;-61
2022/06/29 11:04:00;;;;;;;5.13;4.63;;;26.80;97.00;;;28.27;50.66;97656.41;5216915;28;20225;-61